CYOW/YOW METAR and TAF weather

Enter ICAO airport designator
Station Type Date Time Source
CYOW METAR 2022/01/26 07:00 UTC NOAA

CYOW 260700Z 32006KT 15SM SKC M22/M26 A3027 RMK SLP264


Station Type Date Time Source
CYOW Decoded METAR 2022/01/26 07:00 UTC NOAA

Ottawa Int'L. Ont., Canada (CYOW) 45-19N 075-40W 114M
Jan 26, 2022 - 02:00 AM EST / 2022.01.26 0700 UTC
Wind: from the NW (320 degrees) at 7 MPH (6 KT):0
Visibility: 15 mile(s):0
Sky conditions: clear
Temperature: -7 F (-22 C)
Windchill: -22 F (-30 C):2
Dew Point: -14 F (-26 C)
Relative Humidity: 69%
Pressure (altimeter): 30.27 in. Hg (1025 hPa)
ob: CYOW 260700Z 32006KT 15SM SKC M22/M26 A3027 RMK SLP264
cycle: 7

Station Type Date Time Source
CYOW TAF 2022/01/26 06:45 UTC NOAA

TAF CYOW 260541Z 2606/2706 33010KT P6SM SKC
BECMG 2606/2608 33006KT
BECMG 2620/2622 VRB03KT
RMK NXT FCST BY 260900Z

Example: see airport list